Time;durP1;ratioP1;P1;durP2;ratioP2;P2;SDS_P1;SDS_P2;PMS_P1;PMS_P2;Temp;Humidity;BMP_temperature;BMP_pressure;BME280_temperature;BME280_humidity;BME280_pressure;Samples;Min_cycle;Max_cycle;Signal;HPM_P1;HPM_P2
2021/01/15 00:01:38;;;;;;;25.88;16.30;;;;;;;-0.43;81.13;96350.34;5049800;28;20041;-72
2021/01/15 00:04:05;;;;;;;30.38;16.58;;;;;;;-0.45;81.09;96347.09;5047054;28;20045;-72
2021/01/15 00:06:32;;;;;;;27.77;16.00;;;;;;;-0.46;81.05;96350.66;5045288;28;20043;-72
2021/01/15 00:08:58;;;;;;;33.53;17.20;;;;;;;-0.46;81.21;96347.28;5049908;28;20045;-72
2021/01/15 00:11:30;;;;;;;28.52;16.70;;;;;;;-0.47;80.96;96348.22;5027480;28;20041;-73
2021/01/15 00:13:58;;;;;;;26.67;15.70;;;;;;;-0.49;80.66;96350.13;5048322;28;20048;-72
2021/01/15 00:16:31;;;;;;;31.58;16.63;;;;;;;-0.51;81.13;96346.91;5053307;28;20041;-72
2021/01/15 00:19:00;;;;;;;29.42;15.98;;;;;;;-0.56;80.50;96351.72;5048621;28;20052;-72
2021/01/15 00:21:30;;;;;;;29.88;15.32;;;;;;;-0.67;80.30;96353.56;5047214;28;20048;-72
2021/01/15 00:24:00;;;;;;;29.90;15.63;;;;;;;-0.72;80.69;96357.53;5042353;28;20050;-72
2021/01/15 00:26:28;;;;;;;24.50;15.57;;;;;;;-0.73;80.85;96350.78;5050002;28;20029;-72
2021/01/15 00:29:02;;;;;;;29.13;15.45;;;;;;;-0.68;81.09;96354.50;5051329;28;20033;-72
2021/01/15 00:31:33;;;;;;;26.70;15.93;;;;;;;-0.65;81.15;96349.09;5023786;28;20068;-72
2021/01/15 00:33:59;;;;;;;29.58;16.88;;;;;;;-0.67;81.14;96353.56;5044645;28;20044;-72
2021/01/15 00:36:26;;;;;;;28.77;16.83;;;;;;;-0.67;81.33;96356.16;5050927;28;20036;-71
2021/01/15 00:38:52;;;;;;;28.95;17.13;;;;;;;-0.66;81.06;96365.47;5050837;28;20049;-72
2021/01/15 00:41:18;;;;;;;25.25;15.77;;;;;;;-0.65;81.13;96363.69;5051879;28;20044;-72
2021/01/15 00:43:45;;;;;;;24.10;15.48;;;;;;;-0.67;81.02;96363.06;5051828;28;20053;-72
2021/01/15 00:46:27;;;;;;;24.55;15.38;;;;;;;-0.71;81.20;96374.63;5054583;28;20041;-72
2021/01/15 00:48:54;;;;;;;26.00;15.25;;;;;;;-0.72;81.19;96367.84;5049172;28;20481;-72
2021/01/15 00:51:20;;;;;;;23.80;14.73;;;;;;;-0.72;81.18;96367.84;5048743;28;20041;-72
2021/01/15 00:53:47;;;;;;;23.77;14.25;;;;;;;-0.69;81.15;96373.50;5052692;28;20053;-72
2021/01/15 00:56:17;;;;;;;22.85;14.73;;;;;;;-0.68;80.91;96371.75;5049306;28;20040;-72
2021/01/15 00:58:47;;;;;;;27.27;15.35;;;;;;;-0.66;81.12;96372.41;5051920;28;20390;-72
2021/01/15 01:01:15;;;;;;;25.45;15.95;;;;;;;-0.67;81.05;96371.59;5035673;28;20055;-72
2021/01/15 01:03:44;;;;;;;28.13;16.73;;;;;;;-0.66;81.07;96367.25;5051021;28;20045;-72
2021/01/15 01:06:15;;;;;;;31.77;17.73;;;;;;;-0.66;81.17;96377.53;5048245;28;20052;-72
2021/01/15 01:08:43;;;;;;;32.38;17.85;;;;;;;-0.67;81.07;96379.31;5054036;28;20071;-71
2021/01/15 01:11:21;;;;;;;34.08;18.80;;;;;;;-0.71;80.94;96372.84;5053640;28;20045;-72
2021/01/15 01:13:53;;;;;;;30.40;17.02;;;;;;;-0.72;80.95;96378.94;5052583;28;20048;-72
2021/01/15 01:16:21;;;;;;;31.88;18.17;;;;;;;-0.71;81.25;96379.78;5052971;28;20033;-72
2021/01/15 01:18:48;;;;;;;29.67;18.00;;;;;;;-0.73;81.03;96379.91;5027481;28;628764;-72
2021/01/15 01:21:15;;;;;;;30.25;17.65;;;;;;;-0.73;80.91;96384.25;5050206;28;20048;-72
2021/01/15 01:23:42;;;;;;;28.65;16.08;;;;;;;-0.74;81.02;96390.34;5053742;28;20053;-72
2021/01/15 01:26:10;;;;;;;31.10;16.73;;;;;;;-0.77;80.60;96393.25;5054340;28;20058;-72
2021/01/15 01:28:37;;;;;;;30.05;16.20;;;;;;;-0.88;80.35;96395.09;5054414;28;20401;-72
2021/01/15 01:31:03;;;;;;;29.15;16.38;;;;;;;-0.92;80.75;96400.69;5035898;28;20041;-73
2021/01/15 01:33:30;;;;;;;27.50;17.15;;;;;;;-0.95;80.79;96404.34;5051179;28;20059;-71
2021/01/15 01:35:56;;;;;;;24.67;15.27;;;;;;;-0.95;80.83;96406.09;5031121;28;20052;-72
2021/01/15 01:38:23;;;;;;;22.88;14.40;;;;;;;-0.99;80.96;96403.00;5054265;28;20029;-72
2021/01/15 01:40:49;;;;;;;27.20;16.20;;;;;;;-1.00;80.88;96400.59;5054138;28;20062;-72
2021/01/15 01:43:15;;;;;;;27.45;15.20;;;;;;;-1.03;80.91;96405.09;5054209;28;20048;-72
2021/01/15 01:45:41;;;;;;;28.92;16.10;;;;;;;-1.06;81.11;96407.13;5035892;28;20504;-72
2021/01/15 01:48:08;;;;;;;27.40;15.30;;;;;;;-1.07;81.14;96414.06;5048550;28;20056;-72
2021/01/15 01:50:36;;;;;;;28.92;16.95;;;;;;;-1.07;80.87;96415.78;5048845;28;20041;-72
2021/01/15 01:53:04;;;;;;;31.23;15.35;;;;;;;-1.08;81.16;96409.03;5053516;28;20067;-72
2021/01/15 01:55:30;;;;;;;27.95;16.60;;;;;;;-1.07;81.23;96419.19;5054250;28;20033;-72
2021/01/15 01:57:57;;;;;;;25.67;15.82;;;;;;;-1.10;80.88;96409.19;5053991;28;20044;-72
2021/01/15 02:00:24;;;;;;;30.80;17.33;;;;;;;-1.11;81.30;96410.16;5053774;28;20037;-72
2021/01/15 02:02:51;;;;;;;29.27;16.73;;;;;;;-1.10;81.09;96409.19;5049518;28;20039;-72
2021/01/15 02:05:17;;;;;;;29.48;17.85;;;;;;;-1.12;81.22;96408.50;5052294;28;20044;-72
2021/01/15 02:07:43;;;;;;;32.50;17.48;;;;;;;-1.14;81.18;96420.72;5047226;28;20512;-72
2021/01/15 02:10:15;;;;;;;26.02;15.63;;;;;;;-1.18;81.00;96416.81;5035804;28;20040;-72
2021/01/15 02:12:58;;;;;;;29.50;15.98;;;;;;;-1.21;81.31;96422.25;5053939;28;20033;-72
2021/01/15 02:15:37;;;;;;;28.15;17.38;;;;;;;-1.25;81.32;96415.78;5053239;28;20041;-72
2021/01/15 02:18:16;;;;;;;26.08;16.15;;;;;;;-1.27;81.39;96417.69;5050867;28;20045;-72
2021/01/15 02:21:04;;;;;;;28.27;17.23;;;;;;;-1.28;81.26;96422.03;5047522;28;20041;-72
2021/01/15 02:23:37;;;;;;;28.52;16.95;;;;;;;-1.32;81.40;96425.03;5053968;28;20043;-72
2021/01/15 02:26:06;;;;;;;31.42;17.02;;;;;;;-1.33;81.54;96425.97;5052821;28;20048;-72
2021/01/15 02:29:03;;;;;;;31.63;18.63;;;;;;;-1.35;81.73;96426.13;5052509;28;20466;-72
2021/01/15 02:31:56;;;;;;;35.28;17.95;;;;;;;-1.34;81.82;96426.94;5049614;28;20405;-72
2021/01/15 02:34:40;;;;;;;32.13;17.65;;;;;;;-1.35;81.71;96435.59;5048059;28;20041;-72
2021/01/15 02:37:11;;;;;;;30.83;16.52;;;;;;;-1.36;81.57;96437.38;5048904;28;20385;-71
2021/01/15 02:40:13;;;;;;;32.08;17.10;;;;;;;-1.36;82.00;96436.56;5053210;28;20033;-72
2021/01/15 02:42:41;;;;;;;34.05;17.60;;;;;;;-1.37;81.47;96437.50;5052051;28;20052;-72
2021/01/15 02:45:09;;;;;;;30.10;17.58;;;;;;;-1.39;81.59;96435.06;5051868;28;20433;-72
2021/01/15 02:47:52;;;;;;;31.10;17.38;;;;;;;-1.39;81.78;96442.78;5051072;28;20389;-72
2021/01/15 02:50:26;;;;;;;29.90;16.33;;;;;;;-1.40;81.67;96440.38;5048043;28;20053;-72
2021/01/15 02:52:56;;;;;;;29.73;16.73;;;;;;;-1.42;81.84;96442.28;5051451;28;20033;-72
2021/01/15 02:55:24;;;;;;;31.85;17.15;;;;;;;-1.42;81.81;96440.53;5048333;28;20037;-72
2021/01/15 02:57:51;;;;;;;29.50;16.15;;;;;;;-1.40;81.60;96440.38;5053348;28;20033;-72
2021/01/15 03:00:20;;;;;;;31.55;16.65;;;;;;;-1.40;81.66;96446.34;5047843;28;20045;-72
2021/01/15 03:03:07;;;;;;;32.13;16.92;;;;;;;-1.42;81.88;96443.09;5050434;28;20409;-72
2021/01/15 03:05:40;;;;;;;28.40;15.95;;;;;;;-1.45;81.86;96449.34;5049014;28;20048;-72
2021/01/15 03:08:07;;;;;;;31.95;16.35;;;;;;;-1.44;81.60;96447.56;5047689;28;20049;-72
2021/01/15 03:10:34;;;;;;;26.63;15.55;;;;;;;-1.43;81.79;96446.59;5052776;28;20044;-72
2021/01/15 03:13:05;;;;;;;30.75;16.48;;;;;;;-1.43;81.66;96451.75;5052530;28;20053;-72
2021/01/15 03:15:35;;;;;;;28.92;15.45;;;;;;;-1.45;81.55;96454.47;5033594;28;20048;-72
2021/01/15 03:18:01;;;;;;;34.13;15.77;;;;;;;-1.48;81.41;96443.66;5052122;28;20045;-72
2021/01/15 03:20:28;;;;;;;31.38;15.75;;;;;;;-1.49;81.51;96449.75;5047792;28;20068;-72
2021/01/15 03:22:55;;;;;;;26.77;16.08;;;;;;;-1.50;81.61;96445.56;5053102;28;20044;-72
2021/01/15 03:25:21;;;;;;;28.02;15.70;;;;;;;-1.53;81.33;96456.16;5048218;28;20044;-72
2021/01/15 03:27:50;;;;;;;29.30;14.68;;;;;;;-1.56;81.68;96456.41;5052605;28;20473;-72
2021/01/15 03:30:24;;;;;;;25.98;14.18;;;;;;;-1.59;81.52;96454.94;5047982;28;20033;-72
2021/01/15 03:32:56;;;;;;;24.23;13.90;;;;;;;-1.61;81.17;96459.41;5053079;28;20041;-72
2021/01/15 03:35:22;;;;;;;24.85;14.52;;;;;;;-1.65;81.26;96453.75;5048911;28;20481;-73
2021/01/15 03:37:56;;;;;;;20.48;13.15;;;;;;;-1.67;81.57;96467.69;5052306;28;20049;-72
2021/01/15 03:40:24;;;;;;;25.90;14.17;;;;;;;-1.71;81.62;96459.44;5052627;28;20041;-72
2021/01/15 03:42:50;;;;;;;22.05;13.55;;;;;;;-1.70;81.56;96465.38;5051484;28;20298;-72
2021/01/15 03:45:16;;;;;;;23.20;12.10;;;;;;;-1.75;81.13;96465.81;5049677;28;20033;-72
2021/01/15 03:47:42;;;;;;;23.38;12.35;;;;;;;-1.75;81.51;96470.16;5034886;28;20064;-72
2021/01/15 03:50:09;;;;;;;22.05;11.52;;;;;;;-1.78;81.53;96473.81;5051573;28;20037;-72
2021/01/15 03:52:36;;;;;;;21.73;11.63;;;;;;;-1.79;81.41;96473.94;5051683;28;20041;-72
2021/01/15 03:55:03;;;;;;;20.45;11.55;;;;;;;-1.80;81.35;96473.16;5051766;28;20052;-72
2021/01/15 03:57:30;;;;;;;20.85;10.98;;;;;;;-1.82;81.25;96474.25;5034545;28;20040;-72
2021/01/15 03:59:56;;;;;;;17.58;10.27;;;;;;;-1.86;81.13;96479.66;5048229;28;20469;-72
2021/01/15 04:02:22;;;;;;;18.70;11.65;;;;;;;-1.89;81.30;96472.22;5051742;28;20048;-72
2021/01/15 04:04:52;;;;;;;14.88;9.40;;;;;;;-1.92;81.12;96479.41;5055508;28;20045;-72
2021/01/15 04:07:18;;;;;;;18.58;10.50;;;;;;;-1.94;81.17;96474.38;5033801;28;20064;-72
2021/01/15 04:09:45;;;;;;;13.30;9.18;;;;;;;-1.94;81.18;96479.53;5056416;28;20048;-72
2021/01/15 04:12:12;;;;;;;15.30;9.18;;;;;;;-1.98;81.08;96485.09;5056047;28;20037;-72
2021/01/15 04:14:43;;;;;;;14.90;8.50;;;;;;;-2.03;81.30;96488.09;5051364;28;20051;-71
2021/01/15 04:17:09;;;;;;;14.40;8.57;;;;;;;-2.09;81.11;96491.19;5055563;28;20407;-72
2021/01/15 04:19:36;;;;;;;17.83;10.35;;;;;;;-2.14;81.03;96490.78;5058479;28;20048;-72
2021/01/15 04:22:03;;;;;;;19.17;9.05;;;;;;;-2.17;81.11;96496.22;5070826;28;20389;-72
2021/01/15 04:24:29;;;;;;;14.02;9.13;;;;;;;-2.20;81.11;96491.34;5075351;28;20040;-72
2021/01/15 04:26:57;;;;;;;14.20;8.50;;;;;;;-2.23;80.95;96499.31;5075608;28;20048;-72
2021/01/15 04:29:24;;;;;;;18.60;8.52;;;;;;;-2.25;81.02;96505.41;5072445;28;20040;-72
2021/01/15 04:31:50;;;;;;;14.40;8.65;;;;;;;-2.28;80.86;96499.75;5074894;28;20044;-72
2021/01/15 04:34:17;;;;;;;17.30;9.23;;;;;;;-2.34;80.89;96510.56;5075052;28;20036;-72
2021/01/15 04:36:44;;;;;;;14.77;8.30;;;;;;;-2.37;81.08;96506.50;5071697;28;20480;-72
2021/01/15 04:39:10;;;;;;;16.52;8.65;;;;;;;-2.41;80.84;96512.06;5065343;28;20041;-72
2021/01/15 04:41:36;;;;;;;16.05;7.95;;;;;;;-2.41;81.24;96515.44;5075382;28;20053;-72
2021/01/15 04:44:04;;;;;;;15.55;8.40;;;;;;;-2.38;81.22;96514.34;5070650;28;20045;-72
2021/01/15 04:46:30;;;;;;;13.25;8.52;;;;;;;-2.40;81.10;96524.75;5075543;28;20037;-72
2021/01/15 04:48:57;;;;;;;13.73;8.65;;;;;;;-2.43;81.23;96524.22;5075817;28;20044;-72
2021/01/15 04:51:25;;;;;;;14.15;7.85;;;;;;;-2.46;81.21;96520.13;5070387;28;20045;-72
2021/01/15 04:53:55;;;;;;;14.77;7.80;;;;;;;-2.51;80.97;96533.38;5074265;28;20461;-72
2021/01/15 04:56:48;;;;;;;14.95;7.70;;;;;;;-2.54;81.04;96541.38;5075386;28;20028;-72
2021/01/15 04:59:16;;;;;;;16.30;7.55;;;;;;;-2.56;81.09;96533.00;5070693;28;20075;-72
2021/01/15 05:01:44;;;;;;;12.85;7.75;;;;;;;-2.57;80.94;96539.06;5075015;28;20488;-72
2021/01/15 05:04:12;;;;;;;16.05;7.63;;;;;;;-2.59;81.12;96532.44;5074819;28;20396;-72
2021/01/15 05:06:49;;;;;;;11.65;6.75;;;;;;;-2.60;80.79;96535.94;5070835;28;20049;-72
2021/01/15 05:09:18;;;;;;;16.92;7.78;;;;;;;-2.62;80.76;96543.78;5075086;28;20036;-72
2021/01/15 05:11:45;;;;;;;12.45;6.90;;;;;;;-2.63;80.91;96541.34;5072653;28;20055;-73
2021/01/15 05:14:16;;;;;;;13.13;7.20;;;;;;;-2.66;80.80;96540.66;5069424;28;20052;-72
2021/01/15 05:16:44;;;;;;;11.93;6.80;;;;;;;-2.69;80.67;96543.50;5067075;28;20040;-72
2021/01/15 05:19:12;;;;;;;12.80;6.88;;;;;;;-2.72;80.62;96540.38;5065979;28;20049;-72
2021/01/15 05:21:39;;;;;;;9.82;6.40;;;;;;;-2.78;80.45;96543.47;5049280;28;20057;-72
2021/01/15 05:24:06;;;;;;;9.57;6.68;;;;;;;-2.82;80.40;96545.50;5055031;28;20041;-72
2021/01/15 05:26:40;;;;;;;11.75;7.13;;;;;;;-2.84;80.46;96554.28;5054211;28;20033;-72
2021/01/15 05:29:07;;;;;;;6.87;4.97;;;;;;;-2.88;80.34;96557.13;5053681;28;20041;-72
2021/01/15 05:31:48;;;;;;;10.75;6.75;;;;;;;-2.91;80.22;96557.38;5054831;28;20045;-72
2021/01/15 05:34:15;;;;;;;12.90;6.60;;;;;;;-2.95;80.18;96561.13;5053643;28;20461;-72
2021/01/15 05:36:41;;;;;;;12.82;6.00;;;;;;;-3.00;80.49;96571.00;5049628;28;20056;-72
2021/01/15 05:39:15;;;;;;;13.48;6.22;;;;;;;-3.02;80.13;96561.78;5052172;28;20048;-72
2021/01/15 05:41:42;;;;;;;11.48;5.85;;;;;;;-3.08;80.05;96571.63;5051278;28;20056;-72
2021/01/15 05:44:09;;;;;;;10.90;6.72;;;;;;;-3.10;80.42;96578.63;5052640;28;20041;-72
2021/01/15 05:46:45;;;;;;;10.05;6.63;;;;;;;-3.16;80.38;96568.91;5053258;28;20048;-72
2021/01/15 05:49:11;;;;;;;13.18;6.32;;;;;;;-3.20;80.13;96579.53;5031362;28;20166;-72
2021/01/15 05:51:39;;;;;;;10.57;6.00;;;;;;;-3.22;80.37;96584.78;5049809;28;20056;-72
2021/01/15 05:54:07;;;;;;;12.68;6.90;;;;;;;-3.26;80.10;96586.78;5053906;28;20397;-72
2021/01/15 05:56:44;;;;;;;11.18;6.90;;;;;;;-3.30;80.14;96595.72;5048750;28;20041;-73
2021/01/15 05:59:13;;;;;;;11.93;6.93;;;;;;;-3.34;80.20;96598.63;5048640;28;20484;-72
2021/01/15 06:01:58;;;;;;;11.18;6.55;;;;;;;-3.39;80.00;96599.03;5036404;28;20049;-73
2021/01/15 06:04:40;;;;;;;12.18;7.07;;;;;;;-3.45;80.51;96601.28;5053464;28;20494;-72
2021/01/15 06:07:09;;;;;;;12.70;6.50;;;;;;;-3.51;80.49;96613.69;5044812;28;20041;-73
2021/01/15 06:09:40;;;;;;;10.77;6.75;;;;;;;-3.52;80.15;96609.47;5051768;28;20060;-72
2021/01/15 06:12:17;;;;;;;10.45;7.10;;;;;;;-3.52;80.46;96621.50;5052363;28;20401;-72
2021/01/15 06:14:56;;;;;;;9.48;6.70;;;;;;;-3.53;80.23;96625.81;5049860;28;20428;-72
2021/01/15 06:17:22;;;;;;;9.52;6.63;;;;;;;-3.55;80.29;96626.84;5048656;28;20049;-72
2021/01/15 06:19:58;;;;;;;9.77;6.93;;;;;;;-3.59;80.46;96631.44;5038470;28;20469;-73
2021/01/15 06:22:44;;;;;;;14.05;8.25;;;;;;;-3.62;80.35;96641.13;5047499;28;20053;-73
2021/01/15 06:25:15;;;;;;;18.98;8.63;;;;;;;-3.66;80.25;96637.97;5050625;28;20067;-72
2021/01/15 06:27:42;;;;;;;18.73;7.60;;;;;;;-3.71;80.25;96648.63;5044399;28;20279;-72
2021/01/15 06:30:17;;;;;;;21.23;10.38;;;;;;;-3.72;80.06;96644.41;5047848;28;20037;-72
2021/01/15 06:32:45;;;;;;;15.38;9.05;;;;;;;-3.75;80.30;96654.91;5049296;28;20046;-72
2021/01/15 06:35:28;;;;;;;15.52;7.25;;;;;;;-3.82;79.71;96661.50;5049565;28;20043;-72
2021/01/15 06:38:11;;;;;;;10.00;5.47;;;;;;;-3.88;80.12;96667.09;5047199;28;20053;-73
2021/01/15 06:40:50;;;;;;;12.85;6.53;;;;;;;-3.93;80.14;96669.19;5052665;28;20037;-72
2021/01/15 06:43:19;;;;;;;11.98;7.22;;;;;;;-3.99;80.34;96667.97;5036901;28;20485;-73
2021/01/15 06:45:46;;;;;;;11.80;6.90;;;;;;;-4.00;79.88;96671.44;5040385;28;20045;-72
2021/01/15 06:48:16;;;;;;;13.90;6.45;;;;;;;-4.01;80.17;96680.06;5047520;28;20041;-73
2021/01/15 06:50:45;;;;;;;10.13;6.38;;;;;;;-4.06;79.83;96674.47;5050825;28;20040;-72
2021/01/15 06:53:14;;;;;;;13.93;6.88;;;;;;;-4.09;80.26;96675.53;5049952;28;20052;-72
2021/01/15 06:55:46;;;;;;;12.50;7.38;;;;;;;-4.12;80.21;96673.22;5030242;28;20029;-72
2021/01/15 06:58:21;;;;;;;11.43;7.25;;;;;;;-4.14;80.27;96676.84;5047289;28;20065;-72
2021/01/15 07:01:06;;;;;;;14.93;7.22;;;;;;;-4.16;79.82;96681.25;5044769;28;20041;-72
2021/01/15 07:03:53;;;;;;;14.07;7.50;;;;;;;-4.21;79.70;96697.00;5044030;28;20468;-72
2021/01/15 07:06:36;;;;;;;12.85;7.30;;;;;;;-4.18;79.92;96698.50;5047559;28;20110;-72
2021/01/15 07:09:08;;;;;;;13.88;7.20;;;;;;;-4.20;80.22;96708.03;5024531;28;20049;-72
2021/01/15 07:11:41;;;;;;;15.73;7.22;;;;;;;-4.26;80.03;96703.41;5042425;28;20405;-72
2021/01/15 07:14:08;;;;;;;18.33;8.15;;;;;;;-4.32;79.93;96705.50;5042361;28;20049;-72
2021/01/15 07:16:39;;;;;;;13.23;7.60;;;;;;;-4.33;80.13;96703.06;5031006;28;20041;-72
2021/01/15 07:19:05;;;;;;;13.75;7.75;;;;;;;-4.32;80.19;96717.50;5040468;28;20060;-74
2021/01/15 07:21:36;;;;;;;19.63;8.77;;;;;;;-4.36;80.23;96711.00;5064114;28;20045;-72
2021/01/15 07:24:04;;;;;;;17.95;8.90;;;;;;;-4.35;80.27;96715.16;5068431;28;20500;-73
2021/01/15 07:26:39;;;;;;;14.85;8.45;;;;;;;-4.34;80.07;96720.16;5069071;28;20048;-72
2021/01/15 07:29:10;;;;;;;13.02;8.85;;;;;;;-4.33;80.27;96718.41;5069662;28;20048;-72
2021/01/15 07:31:38;;;;;;;15.57;8.85;;;;;;;-4.26;80.83;96724.72;5067038;28;20056;-73
2021/01/15 07:34:09;;;;;;;15.85;8.07;;;;;;;-4.20;80.56;96731.94;5061755;28;20051;-72
2021/01/15 07:36:37;;;;;;;13.32;8.32;;;;;;;-4.16;80.12;96737.59;5064366;28;20053;-78
2021/01/15 07:39:09;;;;;;;13.15;7.90;;;;;;;-4.12;80.06;96744.13;5076588;28;20052;-73
2021/01/15 07:41:56;;;;;;;13.45;8.27;;;;;;;-4.06;79.87;96741.06;5064963;28;20503;-72
2021/01/15 07:44:22;;;;;;;17.10;8.70;;;;;;;-4.02;80.03;96745.03;5070685;28;20056;-72
2021/01/15 07:46:50;;;;;;;14.60;8.25;;;;;;;-3.97;79.91;96747.22;5075068;28;20051;-73
2021/01/15 07:49:17;;;;;;;12.88;8.00;;;;;;;-3.96;79.34;96739.44;5071214;28;20052;-72
2021/01/15 07:52:03;;;;;;;13.68;8.15;;;;;;;-3.92;78.96;96755.38;5071160;28;20404;-72
2021/01/15 07:54:49;;;;;;;13.48;7.95;;;;;;;-3.89;79.08;96761.06;5067021;28;20052;-73
2021/01/15 07:57:16;;;;;;;16.83;8.43;;;;;;;-3.87;79.15;96759.19;5064633;28;20040;-72
2021/01/15 07:59:43;;;;;;;17.52;9.70;;;;;;;-3.20;94.10;96754.75;5059685;28;20040;-73
2021/01/15 08:02:10;;;;;;;15.32;8.90;;;;;;;-2.77;82.59;96769.22;5061334;28;20477;-73
2021/01/15 08:04:36;;;;;;;14.68;7.80;;;;;;;-2.71;79.67;96768.72;5075211;28;20044;-73
2021/01/15 08:07:35;;;;;;;13.80;7.60;;;;;;;-2.76;77.07;96773.41;5070816;28;20047;-73
2021/01/15 08:10:09;;;;;;;11.90;8.13;;;;;;;-2.85;77.76;96776.75;5067719;28;20057;-72
2021/01/15 08:12:40;;;;;;;11.32;7.35;;;;;;;-2.88;78.09;96782.09;5066865;28;20056;-73
2021/01/15 08:15:27;;;;;;;12.80;8.70;;;;;;;-2.83;76.47;96785.13;5074571;28;20044;-72
2021/01/15 08:17:54;;;;;;;15.70;9.10;;;;;;;-2.74;77.86;96794.63;5075033;28;20480;-73
2021/01/15 08:20:20;;;;;;;13.38;8.88;;;;;;;-2.67;77.54;96794.94;5058702;28;20049;-72
2021/01/15 08:22:50;;;;;;;14.95;9.43;;;;;;;-2.58;77.61;96804.47;5055450;28;20053;-72
2021/01/15 08:25:27;;;;;;;18.25;9.68;;;;;;;-2.47;77.12;96796.66;5049998;28;20025;-73
2021/01/15 08:27:55;;;;;;;14.02;9.48;;;;;;;-2.39;77.56;96806.31;5056153;28;20485;-73
2021/01/15 08:30:22;;;;;;;13.70;8.93;;;;;;;-2.38;77.32;96809.69;5055547;28;20366;-73
2021/01/15 08:32:58;;;;;;;15.10;9.00;;;;;;;-2.34;76.23;96804.16;5050598;28;20037;-73
2021/01/15 08:35:38;;;;;;;16.10;8.60;;;;;;;-2.30;77.03;96810.66;5049962;28;20049;-73
2021/01/15 08:38:07;;;;;;;16.17;9.50;;;;;;;-2.21;76.78;96826.25;5052690;28;20493;-73
2021/01/15 08:40:43;;;;;;;13.82;8.80;;;;;;;-2.18;76.81;96819.13;5055914;28;20393;-73
2021/01/15 08:43:10;;;;;;;18.45;9.07;;;;;;;-2.07;76.83;96820.78;5021705;28;20124;-72
2021/01/15 08:45:36;;;;;;;14.23;8.63;;;;;;;-2.01;76.69;96832.31;5055075;28;20036;-73
2021/01/15 08:48:06;;;;;;;11.95;8.18;;;;;;;-1.93;76.74;96830.72;5053179;28;20701;-73
2021/01/15 08:50:43;;;;;;;14.23;8.73;;;;;;;-1.81;76.65;96840.88;5050487;28;20049;-73
2021/01/15 08:53:10;;;;;;;13.00;8.88;;;;;;;-1.71;76.13;96844.28;5051133;28;20045;-73
2021/01/15 08:55:39;;;;;;;12.68;9.10;;;;;;;-1.60;76.05;96840.81;5054533;28;20044;-73
2021/01/15 08:58:09;;;;;;;16.35;9.15;;;;;;;-1.52;76.37;96848.69;5050154;28;20041;-74
2021/01/15 09:00:35;;;;;;;12.88;8.25;;;;;;;-1.51;76.01;96852.84;5050004;28;20053;-73
2021/01/15 09:03:05;;;;;;;14.82;8.73;;;;;;;-1.46;75.37;96858.44;5053821;28;20447;-73
2021/01/15 09:05:33;;;;;;;13.35;8.05;;;;;;;-1.33;75.64;96860.75;5054560;28;20040;-73
2021/01/15 09:08:19;;;;;;;14.35;9.15;;;;;;;-1.17;75.50;96862.81;5050263;28;20512;-73
2021/01/15 09:10:48;;;;;;;12.13;8.70;;;;;;;-1.07;74.71;96869.59;5054162;28;20037;-73
2021/01/15 09:13:15;;;;;;;16.35;9.05;;;;;;;-1.00;74.88;96871.63;5054040;28;20440;-73
2021/01/15 09:15:42;;;;;;;19.98;9.65;;;;;;;-1.02;74.83;96875.16;5054720;28;20033;-73
2021/01/15 09:18:08;;;;;;;13.35;8.30;;;;;;;-1.05;75.00;96875.44;5050428;28;20385;-73
2021/01/15 09:20:46;;;;;;;15.95;8.90;;;;;;;-1.07;74.06;96874.75;5053899;28;20057;-73
2021/01/15 09:23:16;;;;;;;14.80;9.07;;;;;;;-1.08;74.57;96878.25;5049711;28;20064;-73
2021/01/15 09:25:42;;;;;;;13.32;8.32;;;;;;;-1.06;74.57;96884.09;5044345;28;20046;-73
2021/01/15 09:28:09;;;;;;;16.63;8.77;;;;;;;-1.03;74.53;96886.41;5046780;28;20046;-73
2021/01/15 09:30:35;;;;;;;9.57;6.75;;;;;;;-0.75;80.81;96890.88;5040281;28;20049;-74
2021/01/15 09:33:05;;;;;;;17.15;9.60;;;;;;;-0.11;76.67;96890.22;5054283;28;20417;-74
2021/01/15 09:35:31;;;;;;;12.52;8.68;;;;;;;-0.11;74.95;96892.81;5026868;28;20049;-73
2021/01/15 09:37:58;;;;;;;24.48;9.45;;;;;;;-0.25;74.12;96899.25;5054251;28;20048;-73
2021/01/15 09:40:25;;;;;;;15.70;9.48;;;;;;;-0.42;73.87;96902.50;5048480;28;20049;-73
2021/01/15 09:42:51;;;;;;;15.88;9.38;;;;;;;-0.54;73.96;96901.03;5053275;28;20056;-73
2021/01/15 09:45:18;;;;;;;14.38;9.00;;;;;;;-0.65;74.19;96905.38;5054100;28;20036;-73
2021/01/15 09:47:46;;;;;;;14.15;9.52;;;;;;;-0.72;74.05;96914.59;5049552;28;20120;-73
2021/01/15 09:50:13;;;;;;;16.48;9.40;;;;;;;-0.73;74.19;96917.31;5033197;28;20382;-73
2021/01/15 09:52:49;;;;;;;15.10;9.05;;;;;;;-0.62;72.94;96906.88;5052079;28;20428;-72
2021/01/15 09:55:17;;;;;;;19.17;9.48;;;;;;;-0.50;73.94;96910.13;5054250;28;20052;-73
2021/01/15 09:57:47;;;;;;;14.88;8.93;;;;;;;-0.45;73.55;96916.47;5040915;28;20045;-73
2021/01/15 10:00:14;;;;;;;13.10;9.07;;;;;;;-0.37;73.73;96918.38;5041944;28;20382;-72
2021/01/15 10:02:41;;;;;;;18.00;9.63;;;;;;;-0.27;73.87;96920.94;5048292;28;20428;-73
2021/01/15 10:05:09;;;;;;;17.30;9.30;;;;;;;-0.09;73.70;96921.84;5048745;28;20044;-73
2021/01/15 10:07:35;;;;;;;19.83;9.80;;;;;;;0.11;73.37;96916.66;5026023;28;20481;-72
2021/01/15 10:10:03;;;;;;;16.45;8.75;;;;;;;0.28;73.10;96918.50;5034768;28;20052;-73
2021/01/15 10:12:35;;;;;;;13.73;8.50;;;;;;;0.40;72.44;96921.72;5041886;28;20092;-72
2021/01/15 10:15:02;;;;;;;14.90;9.65;;;;;;;0.55;72.44;96924.63;5031338;28;20429;-73
2021/01/15 10:17:28;;;;;;;19.27;10.25;;;;;;;0.67;72.59;96923.47;5049824;28;20049;-72
2021/01/15 10:19:55;;;;;;;16.95;10.18;;;;;;;0.78;72.38;96925.06;5051879;28;20056;-73
2021/01/15 10:22:21;;;;;;;17.90;10.10;;;;;;;0.88;71.99;96932.72;5050072;28;20056;-72
2021/01/15 10:24:48;;;;;;;16.98;9.35;;;;;;;0.88;71.84;96930.97;5047918;28;20049;-72
2021/01/15 10:27:14;;;;;;;16.35;10.25;;;;;;;0.99;71.99;96933.34;5053094;28;20072;-72
2021/01/15 10:29:40;;;;;;;17.73;9.60;;;;;;;1.18;71.82;96937.59;5052181;28;20056;-72
2021/01/15 10:32:07;;;;;;;15.40;10.02;;;;;;;1.35;71.54;96938.53;5047546;28;20033;-72
2021/01/15 10:34:33;;;;;;;16.83;9.55;;;;;;;1.53;71.34;96940.31;5051042;28;20056;-72
2021/01/15 10:37:01;;;;;;;18.45;10.23;;;;;;;1.66;71.10;96935.59;5024836;28;20053;-73
2021/01/15 10:39:27;;;;;;;14.90;9.75;;;;;;;1.78;70.62;96936.16;5006526;28;20046;-72
2021/01/15 10:41:54;;;;;;;15.85;9.55;;;;;;;1.86;70.33;96943.97;5049187;28;20041;-73
2021/01/15 10:44:21;;;;;;;15.70;9.80;;;;;;;1.92;70.18;96934.81;5047797;28;20405;-72
2021/01/15 10:46:50;;;;;;;14.93;9.60;;;;;;;1.98;69.98;96939.38;5043305;28;20044;-72
2021/01/15 10:49:18;;;;;;;15.15;10.07;;;;;;;2.06;69.58;96938.59;5051913;28;20064;-72
2021/01/15 10:51:48;;;;;;;17.17;10.18;;;;;;;2.09;68.73;96941.69;5046351;28;20037;-73
2021/01/15 10:54:18;;;;;;;15.65;9.93;;;;;;;2.17;68.37;96943.53;5046437;28;20037;-73
2021/01/15 10:56:47;;;;;;;16.48;10.02;;;;;;;2.19;68.53;96947.59;5047702;28;20037;-73
2021/01/15 10:59:15;;;;;;;16.20;10.30;;;;;;;2.27;68.99;96944.25;5051289;28;20052;-73
2021/01/15 11:01:51;;;;;;;18.08;10.20;;;;;;;2.42;66.71;96947.06;5043163;28;20041;-73
2021/01/15 11:04:19;;;;;;;21.05;9.93;;;;;;;2.50;68.20;96954.03;5052491;28;20413;-72
2021/01/15 11:06:55;;;;;;;15.75;10.32;;;;;;;2.58;65.80;96944.56;5028695;28;20473;-73
2021/01/15 11:09:24;;;;;;;18.90;9.75;;;;;;;2.59;67.27;96948.75;5052605;28;20424;-73
2021/01/15 11:11:52;;;;;;;16.48;11.25;;;;;;;2.54;67.19;96953.59;5034324;28;20037;-73
2021/01/15 11:14:19;;;;;;;15.93;10.50;;;;;;;2.41;66.85;96955.78;5054450;28;20033;-73
2021/01/15 11:16:46;;;;;;;18.27;11.30;;;;;;;2.37;66.54;96957.88;5051840;28;20044;-73
2021/01/15 11:19:13;;;;;;;21.60;12.25;;;;;;;2.26;66.61;96952.94;5057466;28;20477;-73
2021/01/15 11:21:39;;;;;;;20.98;11.63;;;;;;;2.18;66.69;96964.09;5051498;28;20045;-73
2021/01/15 11:24:10;;;;;;;18.67;10.57;;;;;;;2.13;65.59;96950.78;5054024;28;20055;-72
2021/01/15 11:26:38;;;;;;;21.10;11.38;;;;;;;2.11;65.87;96959.66;5054823;28;20509;-72
2021/01/15 11:29:07;;;;;;;17.10;11.65;;;;;;;2.05;65.43;96945.56;5054711;28;20037;-73
2021/01/15 11:31:34;;;;;;;17.92;11.50;;;;;;;2.11;65.86;96955.28;5052088;28;20505;-73
2021/01/15 11:34:01;;;;;;;17.15;11.07;;;;;;;2.18;65.56;96958.91;5056588;28;20040;-73
2021/01/15 11:36:30;;;;;;;17.77;11.35;;;;;;;2.17;64.91;96959.06;5035766;28;20045;-78